MMHOMMMZ

Guest
Details From MMHO - General Ignacio P Garcia Intl
To MMMZ - General Rafael Buelna Intl
Flight Number -
Tags Generated
Created
Modified
Stats Distance 440 nm / 815 km
Max Altitude 0 ft / 0 m
Waypoints 3
Social Downloads 1
Likes 0
Share VATSIM

Download

Looking for another format? Having issues loading an existing format? Contact us
Advertisement - Login to hide

Notes

Generated

Route

MMHO PALIA MMMZ

ID Type Via Altitude Latitude Longitude Leg Dist Tot Dist Heading (true) Name
O MMHO APT - 0 ft / 0 m 29.09993˚ -111.05436˚ - 0 nm - GENERAL IGNACIO P GARCIA INTL
PALIA FIX - 0 ft / 0 m 23.51500˚ -106.65574˚ 410 nm 410 nm 144° / 146° -
O MMMZ APT - 0 ft / 0 m 23.16202˚ -106.27783˚ 29 nm 440 nm 135° / 136° -

Altitude Profile

Advertisement - Login to hide

Weather


0- 5 10 15 20 25 30 35+ Temperature / ° C

Clouds and Precipitation
Forecast for 2018-05-23 00:00 UTC. Updated 2 hours ago

Ground ~20,000 ft ~40,000 ft Winds

MMHO

Details ICAO MMHO (HMO)
Name GENERAL IGNACIO P GARCIA INTL
Region Mexico
Timezone America/Hermosillo (UTC-7.0)
Stats Elevation 627 ft / 191 m (AMSL)
Location 29.095223° -111.051141°
Runways 2
Magnetic Variation 9.362° E

METAR

Not found

TAF

TAF MMHO 221707Z 2218/2318 26010KT P6SM SKC FM230400 12008KT P6SM SKC

Decode

Departure Runways

ID Width Length Bearing (true) Bearing (mag) Surface Threshold Offset Overrun Length
05 148 ft / 45 m 7,565 ft / 2,306 m 58.75° 49.39° Asphalt 0 ft / 0 m 185 ft / 56 m
11 98 ft / 30 m 3,601 ft / 1,098 m 125.67° 116.31° Asphalt 0 ft / 0 m 0 ft / 0 m
23 148 ft / 45 m 7,565 ft / 2,306 m 238.76° 229.40° Asphalt 0 ft / 0 m 190 ft / 58 m
29 98 ft / 30 m 3,601 ft / 1,098 m 305.68° 296.32° Asphalt 0 ft / 0 m 0 ft / 0 m

MMMZ

Details ICAO MMMZ (MZT)
Name GENERAL RAFAEL BUELNA INTL
Region Mexico
Timezone America/Mazatlan (UTC-6.0)
Stats Elevation 38 ft / 12 m (AMSL)
Location 23.161355° -106.264697°
Runways 1
Magnetic Variation 7.297° E

METAR

Not found

TAF

TAF MMMZ 222322Z 2300/2406 32010KT P6SM SKC TX30/2319Z TN16/2313Z FM230600 04005KT P6SM SKC FM231200 04005KT P6SM SKC FM231800 24010KT P6SM SKC FM240300 32005KT 5SM HZ SCT020

Decode

Destination Runways

ID Width Length Bearing (true) Bearing (mag) Surface Threshold Offset Overrun Length
08 197 ft / 60 m 8,826 ft / 2,690 m 93.17° 85.87° Asphalt 0 ft / 0 m 175 ft / 53 m
26 197 ft / 60 m 8,826 ft / 2,690 m 273.18° 265.88° Asphalt 0 ft / 0 m 175 ft / 53 m

Approach Navaids

Runway Type Ident Frequency Range Bearing (true) Bearing (mag) Slope Elevation
26 Localiser IMZT 111.70 MHz 18 nm / 33 km 273.73° 266.43° - 38 ft / 12 m (AMSL)
26 Glidescope IMZT 111.70 MHz 10 nm / 19 km 273.17° 265.88° 3.00° 38 ft / 12 m (AMSL)
26 DME IMZT 111.70 MHz 18 nm / 33 km - - - 38 ft / 12 m (AMSL)

Popular Alternatives